Latest Weather Observations for Wilcannia Airport

IDN60801

Issued at 10:05 am EST Tuesday 23 September 2014 (issued every 30 minutes, with the page automatically refreshed every 10 minutes)

About weather observations | Map of weather stations | Latest weather observations for NSW | Other Formats
Station Details ID: 046012 Name: WILCANNIA AERODROME AWS Lat: -31.52 Lon: 143.38 Height: 94.3 m
Data from the previous 72 hours. | See also: Recent months for locations in New South Wales
Date/Time
EST
Temp
°C
App
Temp
°C
Dew
Point
Rel
Hum
%
Delta-T
°C
Wind Press
QNH
hPa
Press
MSL
hPa
Rain
since 9 am
mm
Dir
 
Spd
km/h
Gust
km/h
Spd
kts
Gust
kts
23/10:00am 22.2 15.4 6.8 37 7.9 NE 32 43 17 23 1024.8 1024.6 0.0
23/09:30am 21.6 15.3 7.4 40 7.3 NE 30 43 16 23 1025.2 1025.0 0.0
23/09:00am 20.8 15.9 8.4 45 6.5 NE 24 33 13 18 1025.2 1025.0 0.0
23/08:30am 18.9 13.6 7.0 46 6.0 NE 24 32 13 17 1025.5 1025.3 0.0
23/08:00am 16.9 12.5 6.4 50 5.1 NE 19 28 10 15 1025.2 1025.0 0.0
23/07:30am 14.5 10.4 6.1 57 4.0 NE 17 20 9 11 1024.9 1024.7 0.0
23/07:00am 12.5 9.4 5.7 63 3.2 ENE 11 15 6 8 1024.6 1024.4 0.0
23/06:30am 10.2 6.2 5.0 70 2.4 ENE 15 17 8 9 1024.3 1024.1 0.0
23/06:00am 10.1 6.1 4.7 69 2.4 ENE 15 17 8 9 1024.2 1024.0 0.0
23/05:30am 10.4 6.4 4.8 68 2.5 ENE 15 15 8 8 1024.2 1024.0 0.0
23/05:00am 10.2 6.5 4.6 68 2.5 ENE 13 15 7 8 1024.1 1023.9 0.0
23/04:30am 10.4 6.7 4.5 67 2.7 ENE 13 15 7 8 1023.8 1023.7 0.0
23/04:00am 11.6 8.0 5.0 64 3.0 ENE 13 15 7 8 1024.0 1023.8 0.0
23/03:30am 11.4 7.5 5.3 66 2.8 ENE 15 17 8 9 1024.0 1023.8 0.0
23/03:00am 11.3 7.6 4.7 64 3.0 ENE 13 15 7 8 1023.8 1023.7 0.0
23/02:30am 11.1 7.5 4.8 65 2.9 ENE 13 15 7 8 1024.0 1023.8 0.0
23/02:00am 11.0 7.6 4.2 63 3.0 ENE 11 13 6 7 1024.3 1024.1 0.0
23/01:30am 11.5 7.5 4.7 63 3.1 ENE 15 15 8 8 1024.5 1024.3 0.0
23/01:00am 12.3 8.7 4.8 60 3.4 NE 13 13 7 7 1024.9 1024.7 0.0
23/12:30am 13.3 9.7 5.0 57 3.9 NE 13 15 7 8 1024.9 1024.7 0.0
23/12:00am 13.9 10.3 5.0 55 4.1 NE 13 17 7 9 1024.9 1024.7 0.0
 
Date/Time
EST
Temp
°C
App
Temp
°C
Dew
Point
Rel
Hum
%
Delta-T
°C
Wind Press
QNH
hPa
Press
MSL
hPa
Rain
since 9 am
mm
Dir
 
Spd
km/h
Gust
km/h
Spd
kts
Gust
kts
22/11:30pm 14.7 10.8 5.2 53 4.5 ENE 15 17 8 9 1024.9 1024.7 0.0
22/11:00pm 15.2 11.3 5.4 52 4.6 ENE 15 17 8 9 1025.0 1024.8 0.0
22/10:30pm 14.2 10.2 5.0 54 4.3 ENE 15 17 8 9 1025.0 1024.8 0.0
22/10:00pm 14.9 11.3 4.9 51 4.7 NE 13 15 7 8 1025.2 1025.0 0.0
22/09:30pm 15.6 12.0 5.2 50 5.0 NE 13 15 7 8 1025.0 1024.8 0.0
22/09:00pm 15.8 12.2 4.8 48 5.2 E 13 15 7 8 1024.7 1024.5 0.0
22/08:30pm 17.4 14.0 5.7 46 5.7 ENE 13 17 7 9 1024.7 1024.5 0.0
22/08:00pm 18.4 14.9 5.6 43 6.2 ENE 13 17 7 9 1024.6 1024.4 0.0
22/07:30pm 19.7 15.5 5.7 40 6.9 NE 17 22 9 12 1024.3 1024.1 0.0
22/07:00pm 20.7 15.1 5.5 37 7.5 NE 24 32 13 17 1023.8 1023.7 0.0
22/06:30pm 21.6 15.2 5.1 34 8.2 NE 28 35 15 19 1023.5 1023.4 0.0
22/06:00pm 22.3 17.0 4.8 32 8.6 NE 22 30 12 16 1023.1 1023.0 0.0
22/05:30pm 23.6 17.1 4.5 29 9.5 NE 28 37 15 20 1022.8 1022.7 0.0
22/05:00pm 23.5 17.2 4.0 28 9.6 ENE 26 35 14 19 1022.7 1022.6 0.0
22/04:30pm 24.4 19.3 4.2 27 10.0 ENE 20 30 11 16 1022.5 1022.4 0.0
22/04:00pm 25.5 19.6 4.0 25 10.7 ENE 24 33 13 18 1022.5 1022.4 0.0
22/03:30pm 24.1 17.6 2.9 25 10.3 ENE 26 35 14 19 1022.7 1022.6 0.0
22/03:00pm 26.1 20.5 3.4 23 11.2 E 22 43 12 23 1022.8 1022.7 0.0
22/02:30pm 25.5 19.0 2.9 23 11.1 E 26 35 14 19 1023.1 1023.0 0.0
22/02:00pm 25.6 19.5 2.9 23 11.1 NE 24 43 13 23 1023.5 1023.4 0.0
22/01:33pm 25.4 18.5 2.8 23 11.0 NE 28 76 15 41 1023.5 1023.4 0.0
22/01:30pm 25.3 19.0 3.9 25 10.6 NE 26 37 14 20 1023.8 1023.7 0.0
22/01:00pm 24.2 18.0 2.4 24 10.4 NE 24 41 13 22 1024.3 1024.1 0.0
22/12:30pm 24.5 18.5 3.2 25 10.4 NE 24 33 13 18 1024.8 1024.6 0.0
22/12:00pm 24.4 19.1 3.1 25 10.3 NE 20 26 11 14 1025.4 1025.2 0.0
22/11:30am 24.1 18.6 4.0 27 9.9 NE 22 33 12 18 1025.9 1025.8 0.0
22/11:00am 23.1 17.4 3.1 27 9.6 NE 22 32 12 17 1026.5 1026.4 0.0
22/10:30am 22.4 18.0 2.5 27 9.5 NE 15 22 8 12 1026.9 1026.8 0.0
22/10:00am 21.8 17.7 2.5 28 9.1 NE 13 19 7 10 1027.3 1027.2 0.0
22/09:30am 20.8 15.9 2.1 29 8.7 ENE 17 26 9 14 1027.4 1027.3 0.0
22/09:00am 19.7 14.7 1.2 29 8.3 ENE 17 22 9 12 1027.4 1027.3 0.0
22/08:30am 18.0 13.3 1.1 32 7.5 ENE 15 19 8 10 1027.5 1027.4 0.0
22/08:00am 16.3 11.5 0.4 34 6.8 ENE 15 19 8 10 1027.5 1027.4 0.0
22/07:30am 14.7 11.1 0.9 39 6.0 E 9 13 5 7 1027.1 1027.0 0.0
22/07:00am 11.3 6.9 0.4 47 4.5 E 13 13 7 7 1026.8 1026.7 0.0
22/06:30am 7.9 3.3 -1.3 52 3.5 ESE 13 15 7 8 1026.5 1026.4 0.0
22/06:00am 7.1 2.4 -2.1 52 3.4 E 13 17 7 9 1026.3 1026.2 0.0
22/05:30am 8.1 3.4 -2.0 49 3.8 E 13 13 7 7 1025.8 1025.7 0.0
22/05:00am 8.2 3.5 -1.9 49 3.8 E 13 13 7 7 1025.5 1025.3 0.0
22/04:30am 7.0 2.6 -2.2 52 3.4 E 11 13 6 7 1025.2 1025.0 0.0
22/04:00am 6.8 2.8 -2.6 51 3.4 SSE 9 11 5 6 1025.2 1025.0 0.0
22/03:30am 7.8 4.1 -2.5 48 3.8 SE 7 9 4 5 1025.1 1024.9 0.0
22/03:00am 8.0 3.5 -2.9 46 4.0 ESE 11 13 6 7 1025.2 1025.0 0.0
22/02:30am 8.4 4.3 -3.1 44 4.2 E 9 11 5 6 1025.3 1025.1 0.0
22/02:00am 9.3 4.5 -2.9 42 4.5 E 13 13 7 7 1025.3 1025.1 0.0
22/01:30am 9.4 4.9 -3.2 41 4.7 SE 11 13 6 7 1025.5 1025.3 0.0
22/01:00am 9.5 5.7 -4.1 38 4.9 SE 7 7 4 4 1025.7 1025.6 0.0
22/12:30am 11.4 7.2 -4.3 33 5.8 N 9 13 5 7 1025.8 1025.7 0.0
22/12:00am 13.9 8.6 -3.4 30 6.7 SSE 15 17 8 9 1025.6 1025.5 0.0
 
Date/Time
EST
Temp
°C
App
Temp
°C
Dew
Point
Rel
Hum
%
Delta-T
°C
Wind Press
QNH
hPa
Press
MSL
hPa
Rain
since 9 am
mm
Dir
 
Spd
km/h
Gust
km/h
Spd
kts
Gust
kts
21/11:30pm 13.6 8.3 -3.6 30 6.6 SSE 15 17 8 9 1025.6 1025.5 0.0
21/11:00pm 14.1 8.8 -3.6 29 6.8 SSE 15 17 8 9 1025.8 1025.7 0.0
21/10:30pm 14.2 8.9 -4.0 28 7.0 SSE 15 19 8 10 1025.9 1025.8 0.0
21/10:00pm 13.9 8.8 -4.8 27 7.0 SSE 13 15 7 8 1025.9 1025.8 0.0
21/09:30pm 14.9 9.8 -4.9 25 7.5 S 13 15 7 8 1025.9 1025.8 0.0
21/09:00pm 15.0 9.9 -4.8 25 7.5 S 13 17 7 9 1025.8 1025.7 0.0
21/08:30pm 15.2 9.8 -4.7 25 7.6 S 15 17 8 9 1025.5 1025.3 0.0
21/08:00pm 15.7 10.3 -4.8 24 7.8 S 15 15 8 8 1025.4 1025.2 0.0
21/07:30pm 16.5 11.4 -5.3 22 8.4 SSE 13 15 7 8 1025.3 1025.1 0.0
21/07:00pm 17.8 12.7 -5.4 20 9.0 SSE 13 13 7 7 1025.0 1024.8 0.0
21/06:30pm 20.1 14.9 -6.5 16 10.4 SSE 13 20 7 11 1024.6 1024.4 0.0
21/06:00pm 22.1 15.8 -5.7 15 11.2 S 19 28 10 15 1024.2 1024.0 0.0
21/05:30pm 23.1 16.9 -4.9 15 11.6 S 19 28 10 15 1024.0 1023.8 0.0
21/05:00pm 23.6 17.2 -5.4 14 11.9 SSE 20 35 11 19 1023.7 1023.6 0.0
21/04:30pm 23.8 16.7 -4.4 15 11.9 S 24 33 13 18 1023.7 1023.6 0.0
21/04:00pm 24.1 17.4 -4.1 15 11.9 S 22 32 12 17 1024.0 1023.8 0.0
21/03:30pm 23.9 17.2 -4.3 15 11.9 S 22 37 12 20 1024.2 1024.0 0.0
21/03:00pm 24.1 17.4 -4.1 15 11.9 SSE 22 32 12 17 1024.4 1024.2 0.0
21/02:30pm 24.6 18.6 -2.9 16 12.0 SSE 19 30 10 16 1024.7 1024.5 0.0
21/02:00pm 23.7 16.8 -2.8 17 11.4 SSE 24 33 13 18 1025.2 1025.0 0.0
21/01:30pm 23.4 17.4 -3.0 17 11.4 SSE 19 28 10 15 1025.7 1025.6 0.0
21/01:00pm 23.0 17.6 -1.1 20 10.7 SSE 17 28 9 15 1026.3 1026.2 0.0
21/12:30pm 22.7 17.7 1.1 24 10.0 SE 17 24 9 13 1026.9 1026.8 0.0
21/12:00pm 21.5 16.6 1.7 27 9.1 SE 17 24 9 13 1027.3 1027.2 0.0
21/11:30am 20.5 14.3 1.9 29 8.6 S 24 32 13 17 1027.8 1027.7 0.0
21/11:00am 20.8 14.7 2.6 30 8.5 SE 24 32 13 17 1028.1 1028.0 0.0
21/10:30am 20.0 13.4 1.9 30 8.3 SSE 26 35 14 19 1028.2 1028.1 0.0
21/10:00am 19.9 14.3 3.2 33 7.8 SSE 22 30 12 16 1028.4 1028.3 0.0
21/09:30am 18.7 13.4 2.9 35 7.4 SSE 20 28 11 15 1028.6 1028.5 0.0
21/09:00am 17.5 12.4 4.1 41 6.3 SSE 20 30 11 16 1028.5 1028.4 0.0
21/08:30am 16.8 12.0 4.8 45 5.7 SE 19 26 10 14 1028.2 1028.1 0.0
21/08:00am 15.1 10.3 4.5 49 4.9 SE 19 24 10 13 1027.9 1027.8 0.0
21/07:30am 13.4 7.6 4.3 54 4.2 ESE 24 32 13 17 1027.7 1027.6 0.0
21/07:00am 9.6 5.5 2.5 61 3.0 SSE 13 15 7 8 1027.5 1027.4 0.0
21/06:30am 7.1 2.7 0.5 63 2.6 SSE 13 15 7 8 1027.2 1027.1 0.0
21/06:00am 7.5 3.1 0.3 60 2.8 SSE 13 15 7 8 1026.9 1026.8 0.0
21/05:30am 8.2 3.4 0.2 57 3.2 SSE 15 17 8 9 1026.6 1026.5 0.0
21/05:00am 8.4 3.9 -0.1 55 3.3 SSE 13 15 7 8 1026.1 1026.0 0.0
21/04:30am 8.9 4.3 -0.7 51 3.8 SSE 13 17 7 9 1025.8 1025.7 0.0
21/04:00am 9.4 4.9 -0.5 50 3.9 SE 13 17 7 9 1025.5 1025.3 0.0
21/03:30am 9.9 5.3 -0.9 47 4.3 SSE 13 17 7 9 1025.3 1025.1 0.0
21/03:00am 10.1 5.5 -0.7 47 4.3 SSE 13 17 7 9 1025.3 1025.1 0.0
21/02:30am 9.1 4.1 -1.0 49 3.9 S 15 17 8 9 1025.6 1025.5 0.0
21/02:00am 9.8 5.2 -1.3 46 4.3 SSE 13 15 7 8 1025.9 1025.8 0.0
21/01:30am 10.1 5.5 -1.0 46 4.4 SSE 13 15 7 8 1026.1 1026.0 0.0
21/01:00am 9.8 5.2 -1.3 46 4.3 SE 13 15 7 8 1026.1 1026.0 0.0
21/12:30am 10.0 5.0 -1.4 45 4.5 SSE 15 15 8 8 1026.1 1026.0 0.0
21/12:00am 10.4 5.7 -1.6 43 4.7 SSE 13 13 7 7 1026.0 1025.9 0.0
 
Date/Time
EST
Temp
°C
App
Temp
°C
Dew
Point
Rel
Hum
%
Delta-T
°C
Wind Press
QNH
hPa
Press
MSL
hPa
Rain
since 9 am
mm
Dir
 
Spd
km/h
Gust
km/h
Spd
kts
Gust
kts
20/11:30pm 11.1 6.4 -1.6 41 5.0 S 13 15 7 8 1026.0 1025.9 0.0
20/11:00pm 11.6 6.9 -1.9 39 5.3 SSE 13 17 7 9 1026.0 1025.9 0.0
20/10:30pm 12.2 7.0 -2.4 36 5.7 S 15 17 8 9 1025.9 1025.8 0.0
20/10:00pm 12.2 7.0 -2.8 35 5.8 S 15 15 8 8 1025.9 1025.8 0.0
20/09:30pm 12.6 7.7 -3.2 33 6.1 S 13 15 7 8 1025.7 1025.6 0.0
20/09:00pm 12.9 8.1 -2.6 34 6.0 S 13 15 7 8 1025.5 1025.3 0.0
20/08:30pm 11.4 7.2 -3.9 34 5.7 S 9 11 5 6 1025.3 1025.1 0.0
20/08:00pm 13.2 8.7 -3.5 31 6.4 SSE 11 13 6 7 1025.0 1024.8 0.0
20/07:30pm 14.9 10.4 -3.4 28 7.2 SSE 11 13 6 7 1024.6 1024.4 0.0
20/07:00pm 16.0 11.5 -3.5 26 7.7 SSE 11 15 6 8 1024.2 1024.0 0.0
20/06:30pm 17.6 13.1 -3.2 24 8.5 SSE 11 13 6 7 1023.8 1023.7 0.0
20/06:00pm 19.4 13.7 -4.1 20 9.5 SSE 17 24 9 13 1023.4 1023.3 0.0
20/05:30pm 20.6 14.2 -5.3 17 10.4 SSE 20 30 11 16 1023.2 1023.1 0.0
20/05:00pm 21.4 15.0 -4.6 17 10.6 SSE 20 32 11 17 1023.0 1022.9 0.0
20/04:30pm 21.8 15.1 -4.3 17 10.8 S 22 32 12 17 1023.0 1022.9 0.0
20/04:00pm 21.9 15.9 -2.7 19 10.5 SSE 19 30 10 16 1022.9 1022.8 0.0
20/03:30pm 22.0 16.3 -4.1 17 10.9 SE 17 24 9 13 1023.0 1022.9 0.0
20/03:00pm 22.2 17.6 -4.0 17 10.9 SSE 11 24 6 13 1023.1 1023.0 0.0
20/02:30pm 22.3 17.0 -3.9 17 11.0 S 15 28 8 15 1023.3 1023.2 0.0
20/02:00pm 22.0 17.3 -2.0 20 10.4 SSE 13 17 7 9 1023.6 1023.5 0.0
20/01:30pm 22.1 16.6 -1.9 20 10.4 SE 17 24 9 13 1024.1 1023.9 0.0
20/01:00pm 21.4 15.3 -2.5 20 10.2 S 20 30 11 16 1024.4 1024.2 0.0
20/12:30pm 20.5 14.6 -2.5 21 9.7 SE 19 35 10 19 1024.8 1024.6 0.0
20/12:00pm 19.9 14.4 -2.4 22 9.4 SSE 17 28 9 15 1025.5 1025.3 0.0
20/11:30am 20.0 14.8 -3.0 21 9.6 ESE 15 24 8 13 1025.9 1025.8 0.0
20/11:00am 19.4 14.2 -2.8 22 9.2 SSE 15 20 8 11 1026.1 1026.0 0.0
20/10:30am 18.6 13.6 -1.3 26 8.5 SSE 15 26 8 14 1026.3 1026.2 0.0

Other Formats:

Comma delimited format used in spreadsheet applications
http://www.bom.gov.au/fwo/IDN60801/IDN60801.95695.axf

JavaScript Object Notation format (JSON) in row-major order
http://www.bom.gov.au/fwo/IDN60801/IDN60801.95695.json